Time;durP1;ratioP1;P1;durP2;ratioP2;P2;SDS_P1;SDS_P2;PMS_P1;PMS_P2;Temp;Humidity;BMP_temperature;BMP_pressure;BME280_temperature;BME280_humidity;BME280_pressure;Samples;Min_cycle;Max_cycle;Signal;HPM_P1;HPM_P2
2022/11/20 00:02:22;;;;;;;24.02;8.05;;;;;;;19.42;80.53;100394.56;5051975;28;20033;-75
2022/11/20 00:04:47;;;;;;;20.35;7.38;;;;;;;19.39;80.75;100401.25;5051893;28;20040;-73
2022/11/20 00:07:13;;;;;;;33.20;8.48;;;;;;;19.44;80.89;100403.44;5050591;28;20052;-73
2022/11/20 00:09:38;;;;;;;38.72;8.55;;;;;;;19.45;80.88;100394.19;5052278;28;20025;-73
2022/11/20 00:12:04;;;;;;;28.05;7.07;;;;;;;19.45;80.90;100386.88;5054340;28;20044;-75
2022/11/20 00:14:29;;;;;;;27.13;6.50;;;;;;;19.52;80.94;100386.97;5067597;28;20040;-74
2022/11/20 00:16:54;;;;;;;24.95;6.75;;;;;;;19.51;80.65;100388.84;5066400;28;20420;-74
2022/11/20 00:19:20;;;;;;;32.53;7.97;;;;;;;19.51;80.66;100388.00;5059904;28;20732;-74
2022/11/20 00:21:45;;;;;;;28.90;8.80;;;;;;;19.37;80.90;100381.47;5056527;28;20055;-74
2022/11/20 00:24:11;;;;;;;33.17;7.20;;;;;;;19.35;80.88;100378.09;5057103;28;20200;-73
2022/11/20 00:26:36;;;;;;;33.92;7.28;;;;;;;19.33;81.03;100374.69;5051554;28;20053;-73
2022/11/20 00:29:02;;;;;;;39.95;7.80;;;;;;;19.11;81.09;100358.44;5049081;28;20047;-74
2022/11/20 00:31:28;;;;;;;22.80;7.38;;;;;;;19.36;80.87;100378.94;5051595;28;20074;-74
2022/11/20 00:33:54;;;;;;;26.60;7.20;;;;;;;19.33;80.95;100382.88;5051170;28;20036;-74
2022/11/20 00:36:25;;;;;;;31.98;6.95;;;;;;;19.35;80.75;100382.72;5051340;28;20435;-75
2022/11/20 00:38:53;;;;;;;27.77;6.80;;;;;;;19.36;80.76;100384.38;5051047;28;20029;-73
2022/11/20 00:41:18;;;;;;;32.22;6.82;;;;;;;19.18;80.61;100371.13;5049683;28;20381;-76
2022/11/20 00:43:44;;;;;;;27.42;7.43;;;;;;;19.33;80.62;100401.97;5049807;28;20082;-73
2022/11/20 00:46:13;;;;;;;32.53;7.90;;;;;;;19.28;80.44;100398.97;5051209;28;20021;-75
2022/11/20 00:48:39;;;;;;;32.45;7.93;;;;;;;19.30;80.79;100402.34;5049550;28;20045;-73
2022/11/20 00:51:04;;;;;;;40.88;7.85;;;;;;;19.27;80.52;100397.25;5050626;28;20536;-75
2022/11/20 00:53:30;;;;;;;31.83;7.78;;;;;;;19.24;80.72;100397.63;5050882;28;20104;-75
2022/11/20 00:56:01;;;;;;;28.77;7.10;;;;;;;19.25;80.72;100402.06;5050850;28;20049;-74
2022/11/20 00:58:35;;;;;;;31.23;8.13;;;;;;;19.23;80.83;100397.84;5054159;28;20101;-74
2022/11/20 01:01:08;;;;;;;34.33;7.60;;;;;;;19.25;80.90;100393.88;5049596;28;20595;-74
2022/11/20 01:03:39;;;;;;;33.55;8.25;;;;;;;19.22;80.88;100396.97;5050896;28;20025;-76
2022/11/20 01:06:07;;;;;;;34.70;6.97;;;;;;;19.24;80.79;100396.78;5051036;28;20056;-79
2022/11/20 01:08:34;;;;;;;29.08;7.38;;;;;;;19.21;80.81;100394.44;5050728;28;20561;-73
2022/11/20 01:11:04;;;;;;;33.25;7.30;;;;;;;19.20;81.09;100395.50;5050767;28;20153;-73
2022/11/20 01:13:37;;;;;;;22.38;5.97;;;;;;;19.13;82.02;100402.69;5050677;28;20047;-75
2022/11/20 01:16:31;;;;;;;17.30;5.85;;;;;;;19.20;82.74;100398.22;5050425;28;20055;-75
2022/11/20 01:18:59;;;;;;;39.08;7.40;;;;;;;19.16;83.36;100389.56;5050391;28;20039;-74
2022/11/20 01:21:28;;;;;;;30.25;5.80;;;;;;;19.21;83.76;100398.00;5050627;28;20029;-74
2022/11/20 01:23:54;;;;;;;31.77;6.90;;;;;;;19.32;83.77;100394.84;5051256;28;20078;-74
2022/11/20 01:26:22;;;;;;;28.40;6.13;;;;;;;19.41;83.41;100393.75;5053740;28;20028;-75
2022/11/20 01:28:49;;;;;;;31.83;6.50;;;;;;;19.46;83.04;100385.84;5052934;28;20447;-74
2022/11/20 01:31:17;;;;;;;25.23;6.50;;;;;;;19.49;82.65;100380.00;5051191;28;20020;-74
2022/11/20 01:33:44;;;;;;;22.67;5.57;;;;;;;19.49;82.57;100382.75;5050491;28;20499;-74
2022/11/20 01:36:11;;;;;;;24.10;6.53;;;;;;;19.49;82.12;100382.75;5048903;28;20492;-74
2022/11/20 01:38:36;;;;;;;26.88;5.53;;;;;;;19.47;82.73;100384.81;5050286;28;20035;-74
2022/11/20 01:41:02;;;;;;;32.30;7.18;;;;;;;19.59;82.56;100387.06;5049883;28;20111;-74
2022/11/20 01:43:28;;;;;;;19.02;5.05;;;;;;;19.66;82.01;100386.13;5050026;28;20480;-74
2022/11/20 01:46:01;;;;;;;31.23;7.03;;;;;;;19.68;81.39;100380.47;5049540;28;20033;-74
2022/11/20 01:48:37;;;;;;;23.35;6.35;;;;;;;19.52;81.02;100352.34;5049789;28;20380;-75
2022/11/20 01:51:06;;;;;;;38.70;8.35;;;;;;;19.73;81.06;100380.75;5049880;28;20025;-76
2022/11/20 01:53:36;;;;;;;23.10;6.18;;;;;;;19.71;80.74;100363.72;5048025;28;20119;-74
2022/11/20 01:56:05;;;;;;;37.50;6.45;;;;;;;19.72;80.72;100374.47;5049591;28;20503;-73
2022/11/20 01:58:35;;;;;;;22.05;5.78;;;;;;;19.69;80.35;100384.91;5049736;28;20537;-74
2022/11/20 02:01:02;;;;;;;27.05;5.88;;;;;;;19.68;80.79;100372.28;5049922;28;20040;-75
2022/11/20 02:03:28;;;;;;;21.90;5.97;;;;;;;19.59;81.44;100376.16;5049946;28;20410;-74
2022/11/20 02:06:11;;;;;;;31.83;5.85;;;;;;;19.63;81.23;100377.47;5050061;28;20100;-74
2022/11/20 02:08:38;;;;;;;24.25;5.63;;;;;;;19.67;81.69;100378.78;5049637;28;20384;-73
2022/11/20 02:11:03;;;;;;;20.35;5.40;;;;;;;19.68;81.75;100373.13;5049809;28;20048;-74
2022/11/20 02:13:44;;;;;;;29.75;7.18;;;;;;;19.73;81.72;100370.66;5049571;28;20029;-73
2022/11/20 02:16:43;;;;;;;34.63;7.03;;;;;;;19.81;81.66;100367.00;5049611;28;20504;-76
2022/11/20 02:19:32;;;;;;;29.23;6.85;;;;;;;19.85;81.13;100362.84;5027073;28;20037;-76
2022/11/20 02:22:28;;;;;;;19.92;5.97;;;;;;;19.91;80.85;100362.06;5034216;28;20037;-74
2022/11/20 02:24:54;;;;;;;29.95;6.57;;;;;;;19.74;80.43;100323.25;5031416;28;20109;-75
2022/11/20 02:27:20;;;;;;;23.75;5.03;;;;;;;19.96;80.36;100368.69;5031590;28;20571;-75
2022/11/20 02:30:01;;;;;;;20.48;5.55;;;;;;;20.02;80.24;100367.06;5031809;28;20408;-75
2022/11/20 02:32:32;;;;;;;25.05;7.07;;;;;;;20.09;79.80;100367.97;5034663;28;20028;-75
2022/11/20 02:34:58;;;;;;;25.85;5.88;;;;;;;20.14;79.49;100361.94;5036080;28;20461;-74
2022/11/20 02:37:33;;;;;;;29.58;6.55;;;;;;;20.12;79.41;100364.03;5034194;28;20045;-75
2022/11/20 02:39:59;;;;;;;28.20;5.78;;;;;;;20.11;78.96;100363.19;4991465;28;20077;-74
2022/11/20 02:42:24;;;;;;;28.60;7.78;;;;;;;20.16;78.74;100360.69;4991548;28;20072;-74
2022/11/20 02:44:49;;;;;;;20.40;6.40;;;;;;;20.17;78.76;100362.41;4991613;28;20042;-75
2022/11/20 02:47:15;;;;;;;33.97;6.82;;;;;;;20.14;78.62;100357.31;4991801;28;20096;-75
2022/11/20 02:49:40;;;;;;;34.38;6.30;;;;;;;20.07;78.65;100345.47;4991623;28;20120;-74
2022/11/20 02:52:06;;;;;;;31.42;7.43;;;;;;;20.09;78.75;100349.69;4991312;28;20153;-73
2022/11/20 02:54:31;;;;;;;23.08;5.78;;;;;;;20.11;78.56;100338.59;4991425;28;20038;-73
2022/11/20 02:56:56;;;;;;;38.00;7.68;;;;;;;20.04;78.44;100313.94;5029429;28;20038;-74
2022/11/20 02:59:22;;;;;;;22.17;6.88;;;;;;;20.05;78.86;100328.44;5030824;28;20444;-74
2022/11/20 03:01:47;;;;;;;26.77;5.88;;;;;;;19.95;78.65;100326.03;5030532;28;20025;-74
2022/11/20 03:04:13;;;;;;;29.50;6.07;;;;;;;19.99;78.69;100343.72;5030584;28;20100;-74
2022/11/20 03:06:38;;;;;;;33.25;6.38;;;;;;;20.05;78.61;100342.09;5030639;28;20079;-74
2022/11/20 03:09:03;;;;;;;30.67;6.55;;;;;;;19.97;78.60;100336.75;5030386;28;20112;-76
2022/11/20 03:11:29;;;;;;;29.88;5.68;;;;;;;19.94;78.75;100326.19;5030811;28;20539;-74
2022/11/20 03:13:54;;;;;;;30.83;7.05;;;;;;;19.90;78.74;100322.19;5030344;28;20468;-74
2022/11/20 03:16:22;;;;;;;27.02;6.10;;;;;;;20.01;78.91;100341.63;5031801;28;20029;-74
2022/11/20 03:18:48;;;;;;;30.60;5.75;;;;;;;19.97;78.90;100334.00;5052782;28;20029;-73
2022/11/20 03:21:14;;;;;;;28.33;5.95;;;;;;;19.94;79.04;100323.47;5052787;28;20051;-75
2022/11/20 03:23:40;;;;;;;22.73;5.82;;;;;;;19.98;78.98;100335.72;5067091;28;20042;-74
2022/11/20 03:26:15;;;;;;;25.65;6.65;;;;;;;20.01;78.77;100324.41;5052863;28;20172;-75
2022/11/20 03:28:42;;;;;;;30.83;5.70;;;;;;;19.96;78.66;100311.34;5052671;28;20025;-74
2022/11/20 03:31:10;;;;;;;40.35;7.18;;;;;;;19.98;78.73;100308.41;5052560;28;20679;-74
2022/11/20 03:33:36;;;;;;;23.15;5.28;;;;;;;20.04;78.50;100315.81;5052405;28;20032;-73
2022/11/20 03:36:04;;;;;;;21.50;6.28;;;;;;;20.10;78.25;100317.78;5052362;28;20400;-75
2022/11/20 03:38:31;;;;;;;25.45;6.50;;;;;;;20.10;78.21;100312.31;5053807;28;20029;-74
2022/11/20 03:41:06;;;;;;;30.17;5.78;;;;;;;20.14;77.99;100323.72;5054932;28;20496;-74
2022/11/20 03:43:33;;;;;;;24.65;5.47;;;;;;;20.14;77.83;100324.56;5055455;28;20514;-74
2022/11/20 03:45:58;;;;;;;22.08;5.53;;;;;;;19.88;77.82;100272.38;5053659;28;20061;-75
2022/11/20 03:48:24;;;;;;;38.40;6.47;;;;;;;20.09;77.71;100318.81;5052956;28;20083;-75
2022/11/20 03:50:50;;;;;;;24.73;4.72;;;;;;;20.08;77.69;100315.25;5051955;28;20068;-73
2022/11/20 03:53:16;;;;;;;21.38;5.82;;;;;;;19.78;77.72;100264.53;5052188;28;20028;-74
2022/11/20 03:55:41;;;;;;;30.88;5.93;;;;;;;20.10;77.67;100306.84;5052261;28;20505;-75
2022/11/20 03:58:07;;;;;;;25.73;6.90;;;;;;;20.10;77.45;100315.06;5052093;28;20021;-74
2022/11/20 04:00:33;;;;;;;23.55;6.68;;;;;;;20.10;77.38;100306.84;5052508;28;20037;-76
2022/11/20 04:02:59;;;;;;;16.85;4.93;;;;;;;20.07;77.39;100312.72;5052509;28;20108;-76
2022/11/20 04:05:24;;;;;;;24.77;5.25;;;;;;;20.04;77.75;100302.19;5052574;28;20040;-76
2022/11/20 04:07:50;;;;;;;19.35;5.05;;;;;;;20.05;77.34;100302.00;5052571;28;20033;-75
2022/11/20 04:10:15;;;;;;;25.85;5.93;;;;;;;20.08;77.15;100295.28;5052503;28;20033;-76
2022/11/20 04:12:41;;;;;;;32.90;6.35;;;;;;;19.89;77.15;100265.91;5052398;28;20029;-75
2022/11/20 04:15:07;;;;;;;23.50;6.72;;;;;;;20.06;76.83;100298.22;5052101;28;20025;-76
2022/11/20 04:17:32;;;;;;;21.30;5.43;;;;;;;20.06;76.79;100294.63;5051894;28;20059;-75
2022/11/20 04:19:57;;;;;;;21.77;5.05;;;;;;;20.02;76.86;100288.72;5051838;28;20029;-76
2022/11/20 04:22:23;;;;;;;16.88;4.93;;;;;;;19.80;77.19;100273.38;5051876;28;20036;-76
2022/11/20 04:24:48;;;;;;;21.45;5.00;;;;;;;19.85;77.49;100291.88;5051946;28;20381;-76
2022/11/20 04:27:14;;;;;;;20.42;5.13;;;;;;;19.68;77.60;100268.59;5051753;28;20451;-74
2022/11/20 04:29:39;;;;;;;26.58;5.55;;;;;;;19.66;78.24;100268.81;5051676;28;20488;-75
2022/11/20 04:32:05;;;;;;;31.48;5.43;;;;;;;19.74;78.01;100279.59;5051643;28;20030;-74
2022/11/20 04:34:31;;;;;;;27.98;5.60;;;;;;;19.68;78.53;100287.69;5051251;28;20040;-76
2022/11/20 04:36:56;;;;;;;23.42;5.43;;;;;;;19.66;78.97;100292.50;5051788;28;20079;-75
2022/11/20 04:39:21;;;;;;;28.38;4.95;;;;;;;19.61;78.82;100287.63;5050087;28;20036;-75
2022/11/20 04:41:47;;;;;;;23.27;5.55;;;;;;;19.52;79.37;100286.88;5051973;28;20110;-76
2022/11/20 04:44:12;;;;;;;33.97;5.30;;;;;;;19.51;78.88;100278.88;5053303;28;20025;-75
2022/11/20 04:46:41;;;;;;;30.70;5.25;;;;;;;19.49;79.00;100290.00;5054837;28;20021;-76
2022/11/20 04:49:07;;;;;;;22.08;5.13;;;;;;;19.42;79.32;100286.31;5056489;28;20103;-75
2022/11/20 04:51:33;;;;;;;32.38;9.98;;;;;;;19.36;79.64;100276.16;5054017;28;20131;-74
2022/11/20 04:53:59;;;;;;;21.40;5.85;;;;;;;19.40;79.68;100282.94;5050955;28;20037;-74
2022/11/20 04:56:25;;;;;;;21.92;6.07;;;;;;;19.49;79.43;100278.22;5051053;28;20104;-76
2022/11/20 04:58:50;;;;;;;21.52;5.75;;;;;;;19.58;78.91;100295.31;5049943;28;20416;-76
2022/11/20 05:01:21;;;;;;;27.70;4.35;;;;;;;19.43;78.47;100279.00;5031179;28;20032;-76
2022/11/20 05:03:47;;;;;;;27.60;6.25;;;;;;;19.61;78.06;100311.31;5030852;28;20521;-76
2022/11/20 05:06:14;;;;;;;35.55;5.40;;;;;;;19.63;78.02;100301.91;5031192;28;20164;-75
2022/11/20 05:08:40;;;;;;;23.50;5.85;;;;;;;19.59;77.65;100275.22;5031159;28;20037;-74
2022/11/20 05:11:11;;;;;;;27.65;5.22;;;;;;;19.58;77.84;100270.78;5032022;28;20018;-75
2022/11/20 05:13:37;;;;;;;30.27;5.65;;;;;;;19.58;77.74;100276.22;5033513;28;20031;-76
2022/11/20 05:16:06;;;;;;;30.67;4.95;;;;;;;19.55;78.19;100278.31;5031105;28;20052;-74
2022/11/20 05:18:32;;;;;;;33.65;6.55;;;;;;;19.59;78.09;100275.22;5031401;28;20060;-74
2022/11/20 05:20:58;;;;;;;39.47;5.32;;;;;;;19.55;77.90;100270.13;5030772;28;20022;-74
2022/11/20 05:23:24;;;;;;;23.67;5.35;;;;;;;19.49;78.10;100270.91;5030867;28;20025;-75
2022/11/20 05:25:52;;;;;;;23.40;5.35;;;;;;;19.56;77.93;100276.44;5030684;28;20068;-74
2022/11/20 05:28:18;;;;;;;18.55;4.80;;;;;;;19.65;77.32;100285.34;5029046;28;20029;-74
2022/11/20 05:30:43;;;;;;;41.80;6.00;;;;;;;19.68;77.00;100288.53;5030565;28;20526;-75
2022/11/20 05:33:09;;;;;;;40.55;6.82;;;;;;;19.72;76.71;100286.28;5030489;28;20032;-76
2022/11/20 05:35:34;;;;;;;33.17;6.15;;;;;;;19.67;76.39;100272.34;5029579;28;20716;-75
2022/11/20 05:37:59;;;;;;;36.20;5.72;;;;;;;19.78;76.33;100296.44;5030622;28;20206;-75
2022/11/20 05:40:25;;;;;;;25.02;5.28;;;;;;;19.81;76.08;100304.25;5030269;28;20048;-76
2022/11/20 05:42:50;;;;;;;31.85;5.72;;;;;;;19.86;75.98;100310.81;5030354;28;20473;-75
2022/11/20 05:45:16;;;;;;;33.30;7.15;;;;;;;19.82;75.89;100309.50;5030108;28;20026;-76
2022/11/20 05:47:41;;;;;;;31.77;6.75;;;;;;;19.72;76.17;100292.59;5031772;28;20037;-77
2022/11/20 05:50:07;;;;;;;31.50;5.43;;;;;;;19.93;75.49;100321.81;5042573;28;20404;-74
2022/11/20 05:52:32;;;;;;;33.05;5.57;;;;;;;19.99;75.09;100316.41;5037913;28;20036;-74
2022/11/20 05:54:58;;;;;;;34.60;5.88;;;;;;;19.99;75.10;100316.41;5036695;28;20085;-75
2022/11/20 05:57:23;;;;;;;59.80;7.60;;;;;;;19.99;75.06;100315.56;5040968;28;20429;-76
2022/11/20 05:59:49;;;;;;;28.90;4.80;;;;;;;19.82;75.48;100308.63;5037260;28;20572;-75
2022/11/20 06:02:14;;;;;;;26.73;5.63;;;;;;;19.73;75.84;100288.81;5037795;28;20037;-75
2022/11/20 06:04:40;;;;;;;49.33;6.68;;;;;;;19.76;75.54;100314.88;5039047;28;20116;-74
2022/11/20 06:07:06;;;;;;;24.88;5.95;;;;;;;19.82;75.77;100314.94;5036520;28;20029;-74
2022/11/20 06:09:31;;;;;;;20.05;4.85;;;;;;;19.71;76.05;100317.34;5035464;28;20037;-75
2022/11/20 06:11:57;;;;;;;34.78;5.63;;;;;;;19.76;75.97;100312.13;5034142;28;20033;-74
2022/11/20 06:14:23;;;;;;;38.40;5.88;;;;;;;19.76;75.72;100317.59;5036407;28;20026;-75
2022/11/20 06:16:48;;;;;;;33.85;5.95;;;;;;;19.89;75.45;100317.75;5036618;28;20041;-75
2022/11/20 06:19:14;;;;;;;25.55;5.40;;;;;;;19.90;75.09;100319.47;5038010;28;20021;-75
2022/11/20 06:21:40;;;;;;;33.58;6.25;;;;;;;19.85;75.25;100308.25;5051631;28;20069;-75
2022/11/20 06:24:05;;;;;;;29.83;5.70;;;;;;;19.89;75.07;100325.94;5030790;28;20461;-75
2022/11/20 06:26:31;;;;;;;28.77;5.13;;;;;;;19.99;75.02;100324.63;5030002;28;20026;-77
2022/11/20 06:28:59;;;;;;;22.20;5.05;;;;;;;19.98;74.91;100313.88;5030014;28;20037;-79
2022/11/20 06:31:25;;;;;;;31.88;5.38;;;;;;;20.03;74.29;100327.78;5030373;28;20037;-77
2022/11/20 06:33:52;;;;;;;29.83;5.45;;;;;;;20.06;74.31;100330.13;5030643;28;20048;-76
2022/11/20 06:36:19;;;;;;;34.67;6.72;;;;;;;20.17;74.09;100324.16;5031266;28;20033;-75
2022/11/20 06:38:44;;;;;;;32.17;6.85;;;;;;;20.12;73.47;100307.50;5033805;28;20417;-76
2022/11/20 06:41:18;;;;;;;49.47;6.30;;;;;;;20.24;73.40;100316.91;5030253;28;20543;-77
2022/11/20 06:43:44;;;;;;;27.33;6.18;;;;;;;20.24;73.45;100324.25;5030895;28;20025;-76
2022/11/20 06:46:11;;;;;;;33.38;6.90;;;;;;;20.31;73.20;100325.16;5030676;28;20128;-75
2022/11/20 06:48:40;;;;;;;26.33;5.38;;;;;;;20.09;72.80;100289.63;5029365;28;20045;-75
2022/11/20 06:51:07;;;;;;;25.52;5.55;;;;;;;20.39;72.50;100331.38;5030164;28;20038;-75
2022/11/20 06:53:33;;;;;;;28.45;6.15;;;;;;;20.33;72.12;100302.09;5030569;28;20061;-74
2022/11/20 06:55:59;;;;;;;23.10;5.68;;;;;;;20.50;71.96;100325.38;5044364;28;20068;-74
2022/11/20 06:58:27;;;;;;;29.27;5.82;;;;;;;20.51;71.77;100331.69;5030086;28;20124;-74
2022/11/20 07:00:53;;;;;;;35.30;7.53;;;;;;;20.67;71.40;100325.94;5029876;28;20044;-73
2022/11/20 07:03:19;;;;;;;28.17;6.10;;;;;;;20.77;71.02;100322.84;5028428;28;20080;-73
2022/11/20 07:05:45;;;;;;;40.58;6.53;;;;;;;20.74;70.45;100302.22;5012815;28;20108;-74
2022/11/20 07:08:11;;;;;;;29.10;7.03;;;;;;;20.92;70.21;100329.06;5031789;28;20047;-74
2022/11/20 07:10:37;;;;;;;23.92;5.95;;;;;;;20.49;69.78;100236.25;5031474;28;20104;-75
2022/11/20 07:13:02;;;;;;;41.47;6.50;;;;;;;21.05;69.45;100323.69;5031061;28;20083;-74
2022/11/20 07:15:28;;;;;;;32.42;6.03;;;;;;;21.06;69.21;100329.00;5034071;28;20472;-73
2022/11/20 07:17:53;;;;;;;31.27;7.10;;;;;;;21.06;69.46;100328.13;5040220;28;20042;-74
2022/11/20 07:20:19;;;;;;;31.55;6.15;;;;;;;21.08;69.10;100309.63;5039701;28;20029;-74
2022/11/20 07:22:44;;;;;;;26.25;6.03;;;;;;;21.23;68.78;100326.81;5039284;28;20626;-75
2022/11/20 07:25:10;;;;;;;34.17;6.78;;;;;;;21.19;68.44;100317.31;5039332;28;20037;-76
2022/11/20 07:27:36;;;;;;;27.63;5.85;;;;;;;21.20;68.56;100321.72;5020991;28;20025;-75
2022/11/20 07:30:02;;;;;;;28.65;6.82;;;;;;;21.22;68.38;100333.34;5036346;28;20042;-74
2022/11/20 07:32:28;;;;;;;29.88;5.35;;;;;;;21.18;68.41;100323.84;5035541;28;20457;-74
2022/11/20 07:34:53;;;;;;;29.23;4.63;;;;;;;21.19;68.58;100321.94;5036330;28;20051;-74
2022/11/20 07:37:19;;;;;;;45.70;6.97;;;;;;;21.15;68.62;100318.75;5041685;28;20057;-75
2022/11/20 07:39:44;;;;;;;50.55;9.15;;;;;;;21.15;68.90;100318.75;5044866;28;20473;-76
2022/11/20 07:42:11;;;;;;;26.95;6.82;;;;;;;21.19;68.98;100327.41;5036604;28;20120;-77
2022/11/20 07:44:37;;;;;;;41.35;7.10;;;;;;;21.21;69.03;100312.50;5034317;28;20021;-74
2022/11/20 07:47:03;;;;;;;42.50;6.90;;;;;;;21.32;68.75;100317.38;5033050;28;20090;-75
2022/11/20 07:49:28;;;;;;;49.03;16.70;;;;;;;21.40;68.30;100316.38;5032920;28;20085;-76
2022/11/20 07:51:54;;;;;;;53.65;17.95;;;;;;;21.48;68.32;100319.78;5031229;28;20481;-74
2022/11/20 07:54:20;;;;;;;54.53;10.85;;;;;;;21.52;67.96;100321.09;5032397;28;20068;-73
2022/11/20 07:56:46;;;;;;;35.88;7.57;;;;;;;21.58;67.87;100313.94;5032294;28;20054;-73
2022/11/20 07:59:12;;;;;;;33.92;6.85;;;;;;;21.62;67.51;100310.59;5032266;28;20029;-74
2022/11/20 08:01:38;;;;;;;44.78;6.57;;;;;;;21.69;67.20;100311.47;5032554;28;20052;-76
2022/11/20 08:04:04;;;;;;;63.13;8.93;;;;;;;21.72;67.21;100321.16;5033424;28;20044;-75
2022/11/20 08:06:31;;;;;;;46.88;6.80;;;;;;;21.76;66.89;100321.59;5033700;28;20026;-73
2022/11/20 08:08:56;;;;;;;33.22;5.97;;;;;;;21.83;66.74;100330.69;5033513;28;20033;-74
2022/11/20 08:14:12;;;;;;;36.17;6.43;;;;;;;21.97;66.39;100318.75;5033113;28;20032;-73
2022/11/20 08:16:42;;;;;;;37.78;8.07;;;;;;;22.05;65.90;100321.31;5032434;28;20037;-74
2022/11/20 08:19:07;;;;;;;38.38;7.22;;;;;;;22.03;65.71;100328.88;5031626;28;20382;-75
2022/11/20 08:21:33;;;;;;;40.50;7.60;;;;;;;22.00;65.69;100329.31;5031879;28;20032;-73
2022/11/20 08:23:59;;;;;;;35.33;6.38;;;;;;;21.91;65.84;100322.31;5031661;28;20029;-74
2022/11/20 08:26:25;;;;;;;28.00;7.18;;;;;;;21.79;65.74;100285.59;5031735;28;20029;-74
2022/11/20 08:28:55;;;;;;;30.77;6.32;;;;;;;21.93;65.65;100298.31;5031782;28;20128;-73
2022/11/20 08:31:21;;;;;;;40.00;7.20;;;;;;;21.99;65.58;100314.75;5031536;28;20028;-73
2022/11/20 08:33:47;;;;;;;35.22;6.15;;;;;;;21.81;65.62;100286.22;5031335;28;20445;-73
2022/11/20 08:36:12;;;;;;;29.00;6.22;;;;;;;21.93;65.52;100317.47;5031343;28;20118;-74
2022/11/20 08:38:38;;;;;;;30.83;6.40;;;;;;;21.98;65.60;100321.31;5030984;28;20057;-74
2022/11/20 08:41:23;;;;;;;36.17;6.72;;;;;;;21.96;65.55;100315.16;5031596;28;20026;-73
2022/11/20 08:43:49;;;;;;;35.47;6.70;;;;;;;21.98;65.43;100304.03;5029423;28;20044;-73
2022/11/20 08:46:15;;;;;;;31.45;8.07;;;;;;;22.07;65.27;100302.78;5031371;28;20043;-74
2022/11/20 08:48:41;;;;;;;47.85;8.85;;;;;;;22.14;65.34;100309.09;5031248;28;20041;-75
2022/11/20 08:51:06;;;;;;;28.00;6.90;;;;;;;22.21;64.93;100299.00;5031047;28;20104;-74
2022/11/20 08:53:32;;;;;;;32.17;5.88;;;;;;;22.24;64.56;100293.97;5031209;28;20037;-74
2022/11/20 08:55:58;;;;;;;29.10;5.93;;;;;;;22.22;64.83;100311.66;5031262;28;20130;-76
2022/11/20 08:58:23;;;;;;;37.35;6.95;;;;;;;22.28;64.26;100310.00;5030814;28;20025;-74
2022/11/20 09:00:49;;;;;;;37.47;6.35;;;;;;;22.20;64.24;100308.28;5030759;28;20464;-74
2022/11/20 09:03:14;;;;;;;25.25;6.45;;;;;;;22.06;64.28;100290.13;5030839;28;20040;-74
2022/11/20 09:05:40;;;;;;;29.83;6.10;;;;;;;22.11;64.71;100298.56;5030848;28;20025;-75
2022/11/20 09:08:05;;;;;;;41.13;7.07;;;;;;;22.09;64.67;100300.69;5031219;28;20025;-74
2022/11/20 09:10:32;;;;;;;29.33;6.45;;;;;;;22.00;65.07;100301.91;5030599;28;20056;-73
2022/11/20 09:12:57;;;;;;;38.05;6.72;;;;;;;22.03;64.94;100291.41;5030926;28;20076;-76
2022/11/20 09:15:24;;;;;;;30.23;7.05;;;;;;;22.04;64.77;100282.13;5030718;28;20488;-75
2022/11/20 09:17:58;;;;;;;40.58;6.70;;;;;;;21.81;64.68;100253.38;5032485;28;20558;-74
2022/11/20 09:20:24;;;;;;;32.95;6.65;;;;;;;22.02;64.94;100288.84;5031890;28;20022;-76
2022/11/20 09:22:50;;;;;;;36.90;7.03;;;;;;;22.13;64.88;100280.03;5029540;28;20033;-74
2022/11/20 09:25:16;;;;;;;28.67;6.38;;;;;;;22.14;64.51;100287.19;5029246;28;20039;-74
2022/11/20 09:27:43;;;;;;;34.85;6.80;;;;;;;22.06;64.71;100268.22;5030795;28;20404;-75
2022/11/20 09:30:09;;;;;;;40.08;6.47;;;;;;;22.22;64.42;100285.13;5031667;28;20061;-76
2022/11/20 09:32:35;;;;;;;46.33;7.13;;;;;;;22.10;64.38;100259.41;5030199;28;20128;-73
2022/11/20 09:35:01;;;;;;;32.97;7.35;;;;;;;22.08;64.33;100249.66;5027836;28;20108;-74
2022/11/20 09:37:26;;;;;;;48.22;7.05;;;;;;;22.32;63.83;100273.75;5030288;28;20560;-74
2022/11/20 09:39:52;;;;;;;25.60;7.18;;;;;;;22.34;64.13;100266.16;5030665;28;20025;-73
2022/11/20 09:42:41;;;;;;;38.08;6.35;;;;;;;22.33;63.67;100267.19;5030125;28;20484;-74
2022/11/20 09:45:24;;;;;;;37.70;7.93;;;;;;;22.23;63.61;100242.13;5027640;28;20094;-74
2022/11/20 09:48:31;;;;;;;34.78;6.20;;;;;;;22.31;63.47;100255.63;5027502;28;20065;-74
2022/11/20 09:51:32;;;;;;;28.73;6.32;;;;;;;22.27;63.29;100257.06;4968591;28;20070;-75
2022/11/20 09:54:00;;;;;;;36.80;7.65;;;;;;;22.31;63.32;100250.13;4967945;28;20054;-73
2022/11/20 09:56:28;;;;;;;28.35;5.65;;;;;;;22.29;63.23;100246.78;4968598;28;20414;-74
2022/11/20 09:58:57;;;;;;;38.88;6.50;;;;;;;22.33;62.89;100248.03;4968903;28;20410;-75
2022/11/20 10:01:31;;;;;;;43.15;6.90;;;;;;;22.37;63.00;100238.34;4968569;28;20039;-74
2022/11/20 10:04:04;;;;;;;34.58;7.50;;;;;;;22.38;62.63;100239.19;4969263;28;20439;-73
2022/11/20 10:06:31;;;;;;;;;;;;;;;22.34;62.66;100254.34;4969339;28;20117;-74
2022/11/20 10:09:11;;;;;;;45.38;7.25;;;;;;;22.33;62.83;100242.53;4968985;28;19906;-75
2022/11/20 10:11:37;;;;;;;28.88;5.55;;;;;;;22.20;62.62;100220.59;4968957;28;20042;-75
2022/11/20 10:14:08;;;;;;;39.55;6.65;;;;;;;22.39;62.73;100238.09;4968896;28;20105;-74
2022/11/20 10:17:05;;;;;;;27.30;5.88;;;;;;;22.47;62.41;100222.31;4968935;28;20043;-73
2022/11/20 10:19:39;;;;;;;34.70;6.57;;;;;;;22.47;62.34;100227.81;4949488;29;20035;-74
2022/11/20 10:22:49;;;;;;;29.35;6.35;;;;;;;22.47;62.14;100221.47;4940477;29;20051;-74
2022/11/20 10:25:40;;;;;;;40.90;7.15;;;;;;;22.46;62.30;100209.66;4931321;29;20074;-74
2022/11/20 10:28:15;;;;;;;39.78;6.85;;;;;;;22.21;62.54;100170.25;4906583;29;20051;-74
2022/11/20 10:30:43;;;;;;;42.75;8.00;;;;;;;22.22;62.17;100180.16;4911880;29;20052;-73
2022/11/20 10:33:11;;;;;;;29.45;7.28;;;;;;;22.37;62.49;100199.97;4911242;29;20427;-74
2022/11/20 10:35:52;;;;;;;31.02;7.30;;;;;;;22.37;62.05;100186.28;4911275;29;20087;-73
2022/11/20 10:38:25;;;;;;;28.50;6.67;;;;;;;22.44;61.97;100199.97;4911153;29;20040;-74
2022/11/20 10:41:24;;;;;;;42.45;7.38;;;;;;;22.43;62.09;100198.28;4911312;29;20415;-72
2022/11/20 10:43:44;;;;;;;34.88;5.55;;;;;;;22.37;62.31;100189.00;4914789;29;20543;-74
2022/11/20 10:46:21;;;;;;;38.38;6.57;;;;;;;22.40;62.30;100194.06;4914649;29;20055;-73
2022/11/20 10:48:48;;;;;;;30.10;6.72;;;;;;;22.37;62.23;100189.00;4914480;29;20181;-75
2022/11/20 10:51:22;;;;;;;46.47;8.35;;;;;;;22.45;62.36;100186.03;4914743;29;20559;-73
2022/11/20 10:53:57;;;;;;;32.15;6.25;;;;;;;22.50;61.80;100189.00;4915562;29;20103;-75
2022/11/20 10:56:32;;;;;;;34.05;6.97;;;;;;;22.51;61.82;100193.41;4925220;29;20451;-73
2022/11/20 10:59:11;;;;;;;37.60;6.80;;;;;;;22.49;61.86;100184.56;4933816;29;20072;-73
2022/11/20 11:01:41;;;;;;;29.48;5.88;;;;;;;22.15;62.54;100162.88;4965086;28;20053;-75
2022/11/20 11:04:30;;;;;;;34.53;7.65;;;;;;;22.42;61.88;100191.09;4978594;28;20031;-74
2022/11/20 11:07:30;;;;;;;38.65;7.57;;;;;;;22.50;61.95;100205.44;5032971;28;20025;-75
2022/11/20 11:09:56;;;;;;;29.65;6.43;;;;;;;22.35;61.72;100171.94;5031105;28;20059;-75
2022/11/20 11:12:24;;;;;;;30.98;6.65;;;;;;;22.46;61.57;100187.75;4997584;28;20033;-74
2022/11/20 11:14:55;;;;;;;44.75;6.97;;;;;;;22.53;61.47;100185.84;5031249;28;20056;-75
2022/11/20 11:17:20;;;;;;;34.63;6.05;;;;;;;22.53;61.34;100177.63;5031141;28;20029;-74
2022/11/20 11:20:00;;;;;;;29.90;6.50;;;;;;;22.55;61.10;100194.69;5014038;28;20525;-74
2022/11/20 11:22:28;;;;;;;29.95;6.13;;;;;;;22.56;61.15;100195.53;5030642;28;20040;-75
2022/11/20 11:24:54;;;;;;;36.25;7.13;;;;;;;22.52;61.36;100181.41;5030545;28;20080;-74
2022/11/20 11:27:19;;;;;;;39.78;7.68;;;;;;;22.52;61.20;100180.56;5030482;28;20136;-75